createdAt,value
2022-10-11T00:01:56.752Z,4.68
2022-10-11T00:04:23.554Z,6.72
2022-10-11T00:06:50.424Z,6.88
2022-10-11T00:09:18.917Z,6.15
2022-10-11T00:14:46.319Z,3.47
2022-10-11T00:17:16.950Z,8.40
2022-10-11T00:19:45.793Z,7.50
2022-10-11T00:25:27.849Z,2.70
2022-10-11T00:27:57.628Z,6.07
2022-10-11T00:31:18.223Z,4.95
2022-10-11T00:40:28.076Z,6.03
2022-10-11T00:43:27.471Z,5.07
2022-10-11T00:46:08.485Z,3.28
2022-10-11T00:52:50.055Z,4.82
2022-10-11T00:55:49.529Z,3.20
2022-10-11T00:58:46.917Z,4.78
2022-10-11T01:01:49.572Z,3.88
2022-10-11T01:05:11.323Z,4.05
2022-10-11T01:09:25.417Z,4.68
2022-10-11T01:12:04.181Z,5.43
2022-10-11T01:15:33.106Z,4.32
2022-10-11T01:19:03.068Z,4.35
2022-10-11T01:28:48.881Z,3.83
2022-10-11T01:32:21.841Z,4.38
2022-10-11T01:45:11.832Z,9.00
2022-10-11T01:55:17.916Z,10.38
2022-10-11T01:58:12.262Z,9.80
2022-10-11T02:05:04.723Z,5.68
2022-10-11T02:08:30.720Z,5.07
2022-10-11T02:14:45.509Z,5.28
2022-10-11T02:24:00.529Z,4.40
2022-10-11T02:32:01.459Z,2.90
2022-10-11T02:37:47.468Z,3.75
2022-10-11T02:40:46.524Z,3.03
2022-10-11T02:46:46.679Z,2.17
2022-10-11T02:50:04.284Z,2.03
2022-10-11T03:19:11.773Z,2.43
2022-10-11T03:26:34.794Z,4.18
2022-10-11T03:28:30.550Z,4.20
2022-10-11T03:31:33.211Z,5.10
2022-10-11T03:34:08.377Z,4.83
2022-10-11T03:36:40.524Z,3.33
2022-10-11T03:48:46.579Z,5.77
2022-10-11T03:55:13.803Z,5.40
2022-10-11T04:04:24.344Z,2.97
2022-10-11T04:16:36.114Z,3.10
2022-10-11T04:19:32.071Z,3.97
2022-10-11T04:24:39.247Z,6.15
2022-10-11T04:33:42.781Z,10.13
2022-10-11T04:36:07.352Z,8.68
2022-10-11T04:41:19.869Z,2.65
2022-10-11T04:43:47.362Z,4.00
2022-10-11T04:46:39.184Z,3.23
2022-10-11T04:49:05.048Z,4.40
2022-10-11T04:51:33.805Z,4.28
2022-10-11T04:54:02.597Z,5.10
2022-10-11T04:56:30.666Z,4.57
2022-10-11T04:59:24.532Z,5.00
2022-10-11T05:01:50.255Z,3.95
2022-10-11T05:04:17.007Z,3.85
2022-10-11T05:06:43.789Z,5.57
2022-10-11T05:09:10.694Z,4.55
2022-10-11T05:11:41.957Z,9.20
2022-10-11T05:14:11.223Z,6.93
2022-10-11T05:16:42.921Z,5.45
2022-10-11T05:19:57.883Z,4.50
2022-10-11T05:22:28.427Z,7.35
2022-10-11T05:28:46.713Z,5.38
2022-10-11T05:31:41.473Z,3.70
2022-10-11T05:34:09.484Z,2.78
2022-10-11T05:36:38.906Z,4.07
2022-10-11T05:39:05.972Z,4.97
2022-10-11T05:41:51.875Z,3.97
2022-10-11T05:44:18.653Z,3.13
2022-10-11T05:46:47.035Z,3.90
2022-10-11T05:49:13.666Z,4.57
2022-10-11T05:51:45.802Z,3.10
2022-10-11T05:54:12.622Z,6.90
2022-10-11T05:56:39.256Z,1.85
2022-10-11T05:59:57.195Z,2.03
2022-10-11T06:01:57.741Z,5.05
2022-10-11T06:10:52.232Z,3.65
2022-10-11T06:13:18.706Z,3.25
2022-10-11T06:15:45.202Z,3.40
2022-10-11T06:18:11.681Z,3.73
2022-10-11T06:20:38.206Z,3.20
2022-10-11T06:23:04.675Z,1.83
2022-10-11T06:25:31.143Z,5.97
2022-10-11T06:27:57.647Z,7.10
2022-10-11T06:30:24.325Z,5.00
2022-10-11T06:32:50.900Z,9.40
2022-10-11T06:35:17.525Z,3.15
2022-10-11T06:37:44.071Z,8.90
2022-10-11T06:40:11.124Z,8.40
2022-10-11T06:42:37.816Z,13.23
2022-10-11T06:45:04.776Z,39.53
2022-10-11T06:47:32.287Z,99.13
2022-10-11T06:49:58.857Z,84.10
2022-10-11T06:52:25.338Z,45.15
2022-10-11T06:54:51.778Z,25.97
2022-10-11T06:57:18.310Z,31.15
2022-10-11T06:59:44.826Z,83.63
2022-10-11T07:02:11.349Z,63.55
2022-10-11T07:04:37.853Z,110.38
2022-10-11T07:07:04.757Z,118.87
2022-10-11T07:09:31.462Z,110.03
2022-10-11T07:11:57.980Z,95.47
2022-10-11T07:14:24.497Z,94.25
2022-10-11T07:16:51.036Z,85.78
2022-10-11T07:19:17.520Z,95.37
2022-10-11T07:21:44.075Z,98.53
2022-10-11T07:24:10.577Z,89.45
2022-10-11T07:26:38.907Z,40.58
2022-10-11T07:29:07.526Z,44.72
2022-10-11T07:31:34.364Z,41.90
2022-10-11T07:34:00.933Z,41.22
2022-10-11T07:36:27.442Z,36.03
2022-10-11T07:38:54.127Z,27.13
2022-10-11T07:41:21.293Z,28.20
2022-10-11T07:43:49.895Z,28.97
2022-10-11T07:46:18.336Z,24.35
2022-10-11T07:48:45.032Z,21.80
2022-10-11T07:51:15.901Z,13.38
2022-10-11T07:53:45.797Z,9.98
2022-10-11T07:56:14.147Z,8.37
2022-10-11T07:58:41.942Z,10.90
2022-10-11T08:01:09.603Z,5.95
2022-10-11T08:03:37.723Z,9.65
2022-10-11T08:06:07.790Z,9.65
2022-10-11T08:08:34.955Z,6.77
2022-10-11T08:11:01.594Z,8.82
2022-10-11T08:13:28.278Z,6.65
2022-10-11T08:15:54.971Z,8.40
2022-10-11T08:18:21.559Z,6.82
2022-10-11T08:20:48.163Z,5.17
2022-10-11T08:23:16.714Z,9.30
2022-10-11T08:25:45.219Z,7.63
2022-10-11T08:28:17.942Z,13.43
2022-10-11T08:30:50.632Z,9.73
2022-10-11T08:33:18.397Z,11.67
2022-10-11T08:35:45.178Z,11.40
2022-10-11T08:38:12.977Z,11.38
2022-10-11T08:40:52.151Z,12.57
2022-10-11T08:43:32.884Z,11.80
2022-10-11T08:46:02.941Z,8.77
2022-10-11T08:48:36.459Z,9.88
2022-10-11T08:51:13.959Z,7.32
2022-10-11T08:53:51.846Z,10.25
2022-10-11T08:56:21.564Z,8.45
2022-10-11T08:59:01.177Z,5.57
2022-10-11T09:01:29.757Z,6.40
2022-10-11T09:04:00.094Z,5.30
2022-10-11T09:06:37.273Z,4.72
2022-10-11T09:09:28.128Z,7.22
2022-10-11T09:12:02.314Z,4.43
2022-10-11T09:14:54.586Z,4.35
2022-10-11T09:17:28.275Z,6.60
2022-10-11T09:20:03.769Z,4.70
2022-10-11T09:22:48.808Z,5.63
2022-10-11T09:25:17.322Z,2.80
2022-10-11T09:28:03.117Z,3.92
2022-10-11T09:30:30.327Z,6.22
2022-10-11T09:33:13.488Z,7.63
2022-10-11T09:35:44.381Z,5.68
2022-10-11T09:38:24.640Z,23.40
2022-10-11T09:41:03.156Z,8.10
2022-10-11T09:43:30.249Z,4.75
2022-10-11T09:45:56.745Z,8.68
2022-10-11T09:48:27.690Z,5.70
2022-10-11T09:51:02.500Z,5.03
2022-10-11T09:53:51.704Z,5.18
2022-10-11T09:56:18.302Z,5.65
2022-10-11T09:58:44.962Z,3.97
2022-10-11T10:01:21.691Z,7.00
2022-10-11T10:03:48.543Z,2.43
2022-10-11T10:06:17.651Z,4.95
2022-10-11T10:08:46.961Z,4.20
2022-10-11T10:11:14.486Z,5.47
2022-10-11T10:13:46.749Z,5.47
2022-10-11T10:16:22.671Z,3.50
2022-10-11T10:18:54.549Z,7.90
2022-10-11T10:21:29.206Z,7.63
2022-10-11T10:23:57.646Z,2.83
2022-10-11T10:26:26.524Z,7.50
2022-10-11T10:28:55.138Z,3.33
2022-10-11T10:31:24.130Z,6.60
2022-10-11T10:33:53.640Z,8.15
2022-10-11T10:36:27.475Z,6.07
2022-10-11T10:39:05.697Z,3.83
2022-10-11T10:41:32.613Z,4.30
2022-10-11T10:44:00.873Z,4.28
2022-10-11T10:46:39.434Z,3.58
2022-10-11T10:49:52.650Z,4.30
2022-10-11T10:52:13.725Z,7.90
2022-10-11T10:54:55.338Z,3.80
2022-10-11T10:57:49.053Z,5.10
2022-10-11T11:00:19.468Z,7.65
2022-10-11T11:03:06.774Z,6.43
2022-10-11T11:06:02.728Z,3.92
2022-10-11T11:08:30.328Z,4.17
2022-10-11T11:11:11.372Z,6.65
2022-10-11T11:14:04.426Z,6.97
2022-10-11T11:16:31.983Z,5.15
2022-10-11T11:19:08.418Z,6.10
2022-10-11T11:21:41.806Z,4.13
2022-10-11T11:24:44.618Z,9.00
2022-10-11T11:27:46.502Z,6.63
2022-10-11T11:30:20.305Z,5.35
2022-10-11T11:33:03.449Z,5.03
2022-10-11T11:35:38.306Z,8.87
2022-10-11T11:38:14.843Z,5.75
2022-10-11T11:40:58.799Z,3.83
2022-10-11T11:43:34.002Z,8.27
2022-10-11T11:46:09.498Z,8.98
2022-10-11T11:48:36.087Z,6.00
2022-10-11T11:51:06.769Z,5.57
2022-10-11T11:53:57.465Z,4.35
2022-10-11T11:56:40.260Z,5.50
2022-10-11T11:59:15.316Z,6.25
2022-10-11T12:01:53.522Z,7.57
2022-10-11T12:04:29.734Z,3.97
2022-10-11T12:07:16.036Z,8.73
2022-10-11T12:09:45.759Z,4.88
2022-10-11T12:12:29.713Z,4.18
2022-10-11T12:15:18.172Z,4.70
2022-10-11T12:18:17.395Z,3.92
2022-10-11T12:20:44.652Z,6.57
2022-10-11T12:23:44.617Z,7.30
2022-10-11T12:26:19.575Z,5.13
2022-10-11T12:29:01.104Z,4.10
2022-10-11T12:31:31.524Z,4.55
2022-10-11T12:34:32.466Z,2.30
2022-10-11T12:37:03.199Z,6.43
2022-10-11T12:39:52.193Z,6.82
2022-10-11T12:42:22.910Z,5.10
2022-10-11T12:45:24.593Z,4.40
2022-10-11T12:48:15.128Z,7.50
2022-10-11T12:51:11.830Z,6.57
2022-10-11T12:54:25.585Z,6.53
2022-10-11T12:57:11.883Z,5.47
2022-10-11T12:59:44.613Z,3.95
2022-10-11T13:02:35.194Z,3.90
2022-10-11T13:05:25.141Z,6.25
2022-10-11T13:07:55.516Z,3.90
2022-10-11T13:10:28.841Z,3.80
2022-10-11T13:12:59.576Z,6.00
2022-10-11T13:15:26.617Z,6.35
2022-10-11T13:17:59.546Z,4.82
2022-10-11T13:20:30.661Z,6.70
2022-10-11T13:22:58.318Z,6.60
2022-10-11T13:25:27.939Z,4.25
2022-10-11T13:27:57.365Z,5.28
2022-10-11T13:30:29.695Z,6.60
2022-10-11T13:32:57.581Z,4.10
2022-10-11T13:35:29.361Z,4.60
2022-10-11T13:37:56.405Z,6.70
2022-10-11T13:40:23.907Z,3.58
2022-10-11T13:42:52.394Z,9.02
2022-10-11T13:45:23.054Z,6.22
2022-10-11T13:47:51.998Z,3.80
2022-10-11T13:50:24.194Z,6.55
2022-10-11T13:52:56.528Z,6.75
2022-10-11T13:55:25.006Z,3.80
2022-10-11T13:57:52.431Z,4.57
2022-10-11T14:00:35.143Z,5.97
2022-10-11T14:03:18.436Z,3.53
2022-10-11T14:05:57.981Z,5.22
2022-10-11T14:08:37.820Z,7.15
2022-10-11T14:11:06.804Z,5.07
2022-10-11T14:13:46.510Z,7.30
2022-10-11T14:16:29.495Z,5.30
2022-10-11T14:19:01.055Z,4.35
2022-10-11T14:21:47.837Z,5.55
2022-10-11T14:24:14.651Z,4.82
2022-10-11T14:26:47.270Z,3.43
2022-10-11T14:29:28.892Z,7.25
2022-10-11T14:32:01.336Z,6.03
2022-10-11T14:34:28.440Z,3.38
2022-10-11T14:36:58.473Z,5.93
2022-10-11T14:39:27.768Z,4.30
2022-10-11T14:41:54.784Z,4.38
2022-10-11T14:44:22.530Z,2.70
2022-10-11T14:47:13.111Z,7.15
2022-10-11T14:49:39.789Z,5.95
2022-10-11T14:52:10.629Z,3.87
2022-10-11T14:54:37.251Z,3.50
2022-10-11T14:57:24.405Z,6.55
2022-10-11T15:03:14.392Z,4.82
2022-10-11T15:05:41.108Z,7.03
2022-10-11T15:08:07.821Z,6.53
2022-10-11T15:10:38.164Z,5.70
2022-10-11T15:13:07.170Z,7.47
2022-10-11T15:18:25.168Z,6.90
2022-10-11T15:20:56.005Z,5.78
2022-10-11T15:23:22.740Z,5.82
2022-10-11T15:25:49.419Z,5.40
2022-10-11T15:28:25.976Z,7.05
2022-10-11T15:30:52.782Z,3.33
2022-10-11T15:33:19.467Z,6.90
2022-10-11T15:35:46.113Z,4.53
2022-10-11T15:38:26.969Z,5.55
2022-10-11T15:40:54.135Z,8.23
2022-10-11T15:43:24.771Z,7.10
2022-10-11T15:45:51.927Z,8.45
2022-10-11T15:48:19.516Z,4.68
2022-10-11T15:50:46.460Z,6.35
2022-10-11T15:53:16.099Z,3.63
2022-10-11T15:55:46.678Z,7.00
2022-10-11T15:58:15.350Z,6.95
2022-10-11T16:00:43.585Z,8.02
2022-10-11T16:03:12.959Z,5.97
2022-10-11T16:05:40.551Z,4.97
2022-10-11T16:08:07.726Z,5.70
2022-10-11T16:10:34.727Z,6.63
2022-10-11T16:13:01.975Z,4.68
2022-10-11T16:15:28.737Z,5.25
2022-10-11T16:17:55.386Z,4.88
2022-10-11T16:20:24.397Z,9.20
2022-10-11T16:22:52.743Z,5.93
2022-10-11T16:25:20.639Z,6.25
2022-10-11T16:27:47.433Z,5.03
2022-10-11T16:30:16.297Z,4.43
2022-10-11T16:32:44.441Z,7.13
2022-10-11T16:35:13.365Z,6.95
2022-10-11T16:40:23.169Z,7.30
2022-10-11T16:42:49.746Z,2.78
2022-10-11T16:45:17.714Z,4.80
2022-10-11T16:47:44.779Z,4.68
2022-10-11T16:50:12.869Z,6.95
2022-10-11T16:52:39.518Z,8.55
2022-10-11T16:55:06.457Z,7.80
2022-10-11T16:57:32.984Z,8.40
2022-10-11T16:59:59.613Z,7.43
2022-10-11T17:02:32.099Z,8.93
2022-10-11T17:04:59.302Z,7.35
2022-10-11T17:07:26.497Z,4.82
2022-10-11T17:09:53.074Z,5.70
2022-10-11T17:12:23.471Z,6.32
2022-10-11T17:14:51.091Z,6.05
2022-10-11T17:17:18.729Z,5.40
2022-10-11T17:19:47.337Z,3.53
2022-10-11T17:22:19.741Z,7.47
2022-10-11T17:24:46.481Z,4.32
2022-10-11T17:27:13.351Z,5.00
2022-10-11T17:29:40.230Z,5.63
2022-10-11T17:32:07.071Z,7.40
2022-10-11T17:34:34.923Z,4.77
2022-10-11T17:37:01.614Z,4.10
2022-10-11T17:39:28.317Z,7.82
2022-10-11T17:41:54.877Z,5.50
2022-10-11T17:44:21.772Z,4.75
2022-10-11T17:46:48.683Z,5.53
2022-10-11T17:49:16.945Z,5.00
2022-10-11T17:51:44.119Z,4.53
2022-10-11T17:54:16.808Z,8.82
2022-10-11T17:56:43.573Z,5.28
2022-10-11T17:59:16.835Z,4.63
2022-10-11T18:01:43.654Z,5.28
2022-10-11T18:04:23.785Z,7.70
2022-10-11T18:06:50.392Z,7.88
2022-10-11T18:09:18.603Z,5.40
2022-10-11T18:11:45.829Z,7.97
2022-10-11T18:14:12.911Z,7.47
2022-10-11T18:16:40.808Z,10.55
2022-10-11T18:19:10.881Z,5.00
2022-10-11T18:21:38.640Z,6.95
2022-10-11T18:24:13.021Z,8.77
2022-10-11T18:26:39.878Z,5.47
2022-10-11T18:29:07.034Z,8.52
2022-10-11T18:31:35.322Z,5.55
2022-10-11T18:34:03.760Z,7.22
2022-10-11T18:36:31.251Z,11.83
2022-10-11T18:39:00.957Z,6.05
2022-10-11T18:41:30.798Z,18.85
2022-10-11T18:44:00.383Z,15.05
2022-10-11T18:46:27.915Z,15.95
2022-10-11T18:48:56.849Z,17.80
2022-10-11T18:51:26.519Z,18.20
2022-10-11T18:53:54.594Z,14.20
2022-10-11T18:56:23.879Z,16.63
2022-10-11T18:58:51.852Z,10.90
2022-10-11T19:01:22.032Z,13.17
2022-10-11T19:03:53.724Z,10.63
2022-10-11T19:06:22.992Z,11.27
2022-10-11T19:08:52.901Z,10.55
2022-10-11T19:11:24.384Z,7.32
2022-10-11T19:14:06.408Z,7.53
2022-10-11T19:16:36.119Z,9.40
2022-10-11T19:19:02.721Z,10.38
2022-10-11T19:21:30.137Z,6.63
2022-10-11T19:23:57.418Z,8.98
2022-10-11T19:26:29.799Z,8.57
2022-10-11T19:28:59.040Z,6.50
2022-10-11T19:31:26.444Z,10.50
2022-10-11T19:33:53.609Z,6.88
2022-10-11T19:36:20.412Z,7.82
2022-10-11T19:38:49.443Z,13.07
2022-10-11T19:41:19.162Z,8.68
2022-10-11T19:43:49.397Z,10.20
2022-10-11T19:46:37.851Z,12.45
2022-10-11T19:49:06.156Z,8.25
2022-10-11T19:51:35.035Z,11.40
2022-10-11T19:54:03.831Z,10.45
2022-10-11T19:56:32.340Z,13.60
2022-10-11T19:59:00.825Z,11.73
2022-10-11T20:01:30.632Z,13.50
2022-10-11T20:04:00.189Z,17.93
2022-10-11T20:06:28.708Z,13.10
2022-10-11T20:09:24.067Z,10.77
2022-10-11T20:11:43.419Z,13.93
2022-10-11T20:14:10.000Z,12.45
2022-10-11T20:16:36.802Z,16.20
2022-10-11T20:19:05.082Z,13.15
2022-10-11T20:21:33.102Z,11.05
2022-10-11T20:24:02.473Z,13.48
2022-10-11T20:26:30.521Z,21.70
2022-10-11T20:28:57.946Z,56.47
2022-10-11T20:31:29.572Z,45.70
2022-10-11T20:33:58.472Z,46.72
2022-10-11T20:36:29.590Z,32.90
2022-10-11T20:38:57.452Z,40.20
2022-10-11T20:41:52.954Z,26.73
2022-10-11T20:44:19.588Z,26.40
2022-10-11T20:46:46.245Z,21.27
2022-10-11T20:49:13.328Z,21.02
2022-10-11T20:51:41.801Z,14.05
2022-10-11T20:54:08.877Z,11.40
2022-10-11T20:56:36.478Z,12.60
2022-10-11T20:59:03.807Z,12.43
2022-10-11T21:01:55.479Z,12.18
2022-10-11T21:04:22.175Z,10.63
2022-10-11T21:06:48.959Z,11.40
2022-10-11T21:09:18.198Z,10.13
2022-10-11T21:11:45.073Z,12.57
2022-10-11T21:14:13.534Z,8.55
2022-10-11T21:16:40.154Z,11.98
2022-10-11T21:19:07.792Z,11.63
2022-10-11T21:21:34.674Z,10.60
2022-10-11T21:24:05.440Z,13.77
2022-10-11T21:26:36.826Z,13.25
2022-10-11T21:29:04.291Z,11.63
2022-10-11T21:31:34.378Z,12.43
2022-10-11T21:34:02.403Z,15.13
2022-10-11T21:36:29.082Z,13.52
2022-10-11T21:38:56.795Z,13.85
2022-10-11T21:41:25.642Z,11.45
2022-10-11T21:43:53.260Z,14.37
2022-10-11T21:46:23.760Z,11.43
2022-10-11T21:48:51.702Z,12.40
2022-10-11T21:51:43.868Z,11.88
2022-10-11T21:54:11.022Z,10.85
2022-10-11T21:56:37.747Z,14.07
2022-10-11T21:59:11.036Z,11.50
2022-10-11T22:01:40.751Z,12.18
2022-10-11T22:04:07.998Z,12.23
2022-10-11T22:06:35.715Z,10.60
2022-10-11T22:12:14.746Z,13.20
2022-10-11T22:14:39.442Z,9.07
2022-10-11T22:17:06.068Z,11.70
2022-10-11T22:19:34.991Z,10.07
2022-10-11T22:22:03.893Z,11.83
2022-10-11T22:24:30.743Z,8.80
2022-10-11T22:26:57.341Z,9.25
2022-10-11T22:29:24.121Z,11.02
2022-10-11T22:31:50.741Z,10.73
2022-10-11T22:34:19.680Z,10.57
2022-10-11T22:36:46.324Z,8.88
2022-10-11T22:39:13.077Z,8.45
2022-10-11T22:41:40.890Z,7.85
2022-10-11T22:44:07.481Z,8.18
2022-10-11T22:46:37.404Z,9.37
2022-10-11T22:49:04.192Z,10.77
2022-10-11T22:51:31.055Z,7.70
2022-10-11T22:53:57.742Z,8.95
2022-10-11T22:56:24.415Z,12.85
2022-10-11T22:58:51.216Z,10.03
2022-10-11T23:01:17.899Z,9.43
2022-10-11T23:03:49.250Z,11.55
2022-10-11T23:06:16.032Z,10.32
2022-10-11T23:08:44.304Z,15.20
2022-10-11T23:11:11.975Z,11.17
2022-10-11T23:13:38.684Z,11.80
2022-10-11T23:16:07.654Z,10.55
2022-10-11T23:18:34.348Z,15.13
2022-10-11T23:21:04.998Z,10.95
2022-10-11T23:23:31.687Z,13.70
2022-10-11T23:26:04.921Z,13.57
2022-10-11T23:28:32.189Z,15.50
2022-10-11T23:30:59.097Z,11.63
2022-10-11T23:33:25.784Z,14.02
2022-10-11T23:35:52.449Z,12.43
2022-10-11T23:38:20.183Z,13.57
2022-10-11T23:40:46.808Z,16.88
2022-10-11T23:43:13.535Z,13.57
2022-10-11T23:45:43.317Z,12.88
2022-10-11T23:48:10.200Z,12.43
2022-10-11T23:50:36.855Z,12.70
2022-10-11T23:53:03.863Z,16.95
2022-10-11T23:55:30.618Z,14.02
2022-10-11T23:57:57.381Z,13.48
